AirNav   Everest Fuels
 
 1412 users online  

S36 Norman Grier Field Airport
Kent, Washington, USA

GOING TO KENT?


FAA INFORMATION EFFECTIVE 16 JULY 2020

Location

FAA Identifier: S36
Lat/Long: 47-20-13.5480N 122-06-12.7310W
47-20.225800N 122-06.212183W
47.3370967,-122.1035364
(estimated)
Elevation: 472 ft. / 144 m (estimated)
Variation: 20E (1985)
From city: 5 miles SE of KENT, WA
Time zone: UTC -7 (UTC -8 during Standard Time)
Zip code: 98042

Airport Operations

Airport use: Open to the public
Activation date: 03/1965
Control tower: no
ARTCC: SEATTLE CENTER
FSS: SEATTLE FLIGHT SERVICE STATION
NOTAMs facility: SEA (NOTAM-D service available)
Attendance: 0900-1700
Wind indicator: lighted
Segmented circle: no
Beacon: white-green (lighted land airport)
Operates sunset to sunrise.

Airport Communications

CTAF/UNICOM: 123.0
WX ASOS at RNT (10 nm NW): 126.95 (425-255-6080)
WX ASOS at SEA (11 nm NW): PHONE 206-214-2592
WX ASOS at BFI (14 nm NW): PHONE 206-658-6435
WX AWOS-3 at PLU (16 nm SW): 128.575 (253-848-2748)
WX ASOS at TCM (19 nm SW): 342.3 (253-982-3434)
WX ASOS at TIW (20 nm W): 124.05 (253-858-6507)

Nearby radio navigation aids

VOR radial/distance  VOR name  Freq  Var
SEAr106/10.2SEATTLE VORTAC116.8019E
TCMr038/18.9MCCHORD VORTAC109.6015E
PAEr149/35.7PAINE VOR/DME110.6020E
OLMr037/39.3OLYMPIA VORTAC113.4019E

Airport Services

Fuel available: 100LL
24 HR CREDIT CARD FUEL AVBL.
Parking: tiedowns
Airframe service: MAJOR
Powerplant service: MAJOR
Bottled oxygen: NONE
Bulk oxygen: NONE

Runway Information

Runway 15/33

Dimensions: 3288 x 40 ft. / 1002 x 12 m
Surface: asphalt, in good condition
Weight bearing capacity: 
Single wheel: 12.0
Runway edge lights: low intensity
Runway edge markings: 15/33 NSTD MARKINGS NUMBERS & CNTRLN ONLY; FADED.
RUNWAY 15  RUNWAY 33
Latitude: 47-20.492850N47-19.958750N
Longitude: 122-06.274483W122-06.149883W
Traffic pattern: leftleft
Displaced threshold: no281 ft.
Markings: NSTD, in fair conditionNSTD, in fair condition
Obstructions: 63 ft. trees, 912 ft. from runway, 11:1 slope to clear
TREES IN PRIM SFC, PARKED ACFT IN PRIM SFC BOTH SIDES OF RY AND 3 FT SIGN, 92 FT LEFT, 27 FT FROM THR.
107 ft. trees, 1560 ft. from runway, 12:1 slope to clear
+89' TREES IN PRIM SFC 0-200' FM THR, 120'R.

Airport Ownership and Management from official FAA records

Ownership: Privately-owned
Owner: NORM GRIER HOLDINGS LLC
29300 179 PLACE SE
KENT, WA 98042
Phone 253-631-7100
Manager: RIKKI BIRGE
29300 179TH PLACE SE
KENT, WA 98042
Phone 253-631-7100

Airport Operational Statistics

Aircraft based on the field: 332
Single engine airplanes: 327
Multi engine airplanes: 5
    
Aircraft operations: avg 312/day *
89% transient general aviation
11% local general aviation
* for 12-month period ending 31 December 2016

Additional Remarks

TREES BOTH SIDES OF RWY IN TRSN SFC.
TREES ON BOTH SIDES OF RY 15/33.
NIGHT OPS USE RY 15, WIND AND WX PMTG.
ARPT CLOSED WHEN SNOW ON RY.
FOR CD CTC SEATTLE APCH AT 206-214-4723.

Instrument Procedures

There are no published instrument procedures at S36.

Some nearby airports with instrument procedures:

S50 - Auburn Municipal Airport (5 nm W)
KRNT - Renton Municipal Airport (10 nm NW)
KSEA - Seattle-Tacoma International Airport (11 nm NW)
KBFI - Boeing Field/King County International Airport (14 nm NW)
KPLU - Pierce County Airport - Thun Field (16 nm SW)
KTCM - McChord Field Airport (Joint Base Lewis-McChord) (19 nm SW)
KTIW - Tacoma Narrows Airport (20 nm W)
 
Loc | Ops | Rwys | IFR | FBO | Links
Com | Nav | Svcs | Stats | Notes
Area around S36 (Norman Grier Field Airport)
 
Road maps at: MapQuest Bing Google
 
Aerial photo
WARNING: Photo may not be current or correct
Aerial photo of S36 (Norman Grier Field Airport)
Photo taken 22-Feb-2015
looking north.

Do you have a better or more recent aerial photo of Norman Grier Field Airport that you would like to share? If so, please send us your photo.

 
Sectional chart

 
Airport distance calculator
Flying to Norman Grier Field Airport? Find the distance to fly.

From to S36

Sunrise and sunset
Times for 12-Aug-2020
 Local
(UTC-7)
 Zulu
(UTC)
Morning civil twilight05:2912:29
Sunrise06:0313:03
Sunset20:2303:23
Evening civil twilight20:5703:57

Current date and time
Zulu (UTC)  12-Aug-2020 14:39:16
Local (UTC-7)  12-Aug-2020 07:39:16
 
METAR
KRNT 
11nm NW 
121353Z 13004KT 5SM SCT065 13/07 A3002 RMK AO2 SLP171 T01330072
KSEA 
11nm NW 
121353Z 14007KT 10SM BKN060 BKN250 13/08 A3002 RMK AO2 SLP172 T01330078
KBFI 
15nm NW 
121353Z 13007KT 10SM BKN060 14/07 A3002 RMK AO2 SLP165 T01390072
KPLU 
16nm SW 
121415Z AUTO 00000KT 10SM OVC029 13/09 A3003 RMK AO2
KTCM 
20nm SW 
121358Z AUTO 19004KT 10SM OVC027 13/08 A3003 RMK AO2 SLP172 T01290080 $
KTIW 
20nm W 
121353Z AUTO 20003KT 10SM OVC025 12/08 A3002 RMK AO2 SLP164 T01170078 TSNO
TAF
KSEA 
11nm NW 
121120Z 1212/1318 19005KT P6SM SCT025 OVC040 TEMPO 1213/1217 BKN020 OVC040 FM121800 19005KT P6SM BKN050 FM122000 24005KT P6SM FEW050 FM130400 VRB03KT P6SM BKN250
KBFI 
15nm NW 
121120Z 1212/1312 17003KT P6SM SCT020 OVC040 TEMPO 1213/1217 BKN020 OVC040 FM121700 20005KT P6SM BKN050 FM122200 24005KT P6SM BKN250 FM130400 00000KT P6SM BKN250
KTCM 
20nm SW 
120500Z 1205/1311 21008KT 9999 SCT080 QNH2993INS BECMG 1210/1211 19006KT 9999 OVC020 QNH2998INS BECMG 1220/1221 21010KT 9999 BKN030 QNH3005INS BECMG 1302/1303 24006KT 9999 SCT040 QNH3006INS TX22/1223Z TN10/1212Z
NOTAMs
Click for the latest NOTAMs
NOTAMs are issued by the DoD/FAA and will open in a separate window not controlled by AirNav.

 

 
 

FBO, Fuel Providers, and Aircraft Ground Support

  
 Business Name 
 
 Contact 
 
 Services / Description 
 
Fuel Prices
 
Comments
  
Crest Airpark 253-631-7100
[web site]
[email]
Airport management, Aviation fuel, Aircraft parking (ramp or tiedown), Flight training, Aircraft rental, Aerial tours / aerial sightseeing, Aircraft maintenance, ...

More info about Crest Airpark
EPIC
100LL
SS $4.49 
 Updated 06-Aug-2020
 
   write
SS=Self service
Update Fuel Prices
 

Would you like to see your business listed on this page?

 If your business provides an interesting product or service to pilots, flight crews, aircraft, or users of the Norman Grier Field Airport, you should consider listing it here.  To start the listing process, click on the button below
 
Add a business
 

Other Pages about Norman Grier Field Airport

www.crestairpark.com
 
Update a link
 
Copyright © AirNav, LLC. All rights reserved. Privacy Policy  Contact